createdAt,value
2023-04-26T00:00:46.942Z,0
2023-04-26T00:02:03.230Z,0
2023-04-26T00:03:19.522Z,0
2023-04-26T00:04:34.832Z,0
2023-04-26T00:05:51.142Z,0
2023-04-26T00:07:07.422Z,0
2023-04-26T00:08:23.729Z,0
2023-04-26T00:09:40.015Z,0
2023-04-26T00:10:56.305Z,0
2023-04-26T00:12:12.611Z,0
2023-04-26T00:13:28.894Z,0
2023-04-26T00:16:01.483Z,0
2023-04-26T00:17:17.788Z,0
2023-04-26T00:18:34.079Z,0
2023-04-26T00:19:50.386Z,0
2023-04-26T00:21:05.679Z,0
2023-04-26T00:22:21.977Z,0
2023-04-26T00:23:38.279Z,0
2023-04-26T00:24:54.576Z,0
2023-04-26T00:26:10.872Z,0
2023-04-26T00:27:27.156Z,0
2023-04-26T00:28:43.445Z,0
2023-04-26T00:29:59.752Z,0
2023-04-26T00:31:16.049Z,0
2023-04-26T00:32:32.341Z,0
2023-04-26T00:33:48.633Z,0
2023-04-26T00:35:04.928Z,0
2023-04-26T00:36:21.225Z,0
2023-04-26T00:38:52.822Z,0
2023-04-26T00:40:08.138Z,0
2023-04-26T00:41:24.433Z,0
2023-04-26T00:42:40.741Z,0
2023-04-26T00:43:57.035Z,0
2023-04-26T00:46:29.617Z,0
2023-04-26T00:47:45.911Z,0
2023-04-26T00:49:02.208Z,0
2023-04-26T00:50:18.495Z,0
2023-04-26T00:51:34.800Z,0
2023-04-26T00:52:51.082Z,0
2023-04-26T00:54:07.380Z,0
2023-04-26T00:55:23.679Z,0
2023-04-26T00:56:38.997Z,0
2023-04-26T00:57:55.274Z,0
2023-04-26T00:59:11.585Z,0
2023-04-26T01:00:27.866Z,0
2023-04-26T01:01:44.160Z,0
2023-04-26T01:03:00.466Z,0
2023-04-26T01:04:16.757Z,0
2023-04-26T01:05:33.044Z,0
2023-04-26T01:06:49.339Z,0
2023-04-26T01:08:05.640Z,0
2023-04-26T01:09:21.940Z,0
2023-04-26T01:11:54.526Z,0
2023-04-26T01:13:09.839Z,0
2023-04-26T01:14:26.124Z,0
2023-04-26T01:15:42.418Z,0
2023-04-26T01:16:58.728Z,0
2023-04-26T01:18:15.010Z,0
2023-04-26T01:19:31.298Z,0
2023-04-26T01:20:47.606Z,0
2023-04-26T01:22:03.890Z,0
2023-04-26T01:24:36.491Z,0
2023-04-26T01:25:52.771Z,0
2023-04-26T01:27:09.074Z,0
2023-04-26T01:28:25.377Z,0
2023-04-26T01:29:40.683Z,0
2023-04-26T01:30:56.975Z,0
2023-04-26T01:32:13.271Z,0
2023-04-26T01:33:29.558Z,0
2023-04-26T01:34:45.857Z,0
2023-04-26T01:36:02.151Z,0
2023-04-26T01:37:18.454Z,0
2023-04-26T01:38:34.747Z,0
2023-04-26T01:39:51.030Z,0
2023-04-26T01:41:07.333Z,0
2023-04-26T01:42:23.630Z,0
2023-04-26T01:43:39.926Z,0
2023-04-26T01:44:56.209Z,0
2023-04-26T01:46:11.534Z,0
2023-04-26T01:47:27.827Z,0
2023-04-26T01:48:44.123Z,0
2023-04-26T01:50:00.413Z,0
2023-04-26T01:51:16.700Z,0
2023-04-26T01:52:32.992Z,0
2023-04-26T01:53:49.000Z,0
2023-04-26T01:55:05.000Z,0
2023-04-26T01:56:21.886Z,0
2023-04-26T01:57:38.186Z,0
2023-04-26T01:58:54.478Z,0
2023-04-26T02:00:10.760Z,0
2023-04-26T02:01:27.067Z,0
2023-04-26T02:02:42.374Z,0
2023-04-26T02:03:58.677Z,0
2023-04-26T02:05:14.960Z,0
2023-04-26T02:06:31.253Z,0
2023-04-26T02:07:47.551Z,0
2023-04-26T02:09:03.850Z,0
2023-04-26T02:10:20.128Z,0
2023-04-26T02:11:36.425Z,0
2023-04-26T02:12:52.726Z,0
2023-04-26T02:14:09.021Z,0
2023-04-26T02:15:25.302Z,0
2023-04-26T02:16:41.611Z,0
2023-04-26T02:17:57.901Z,0
2023-04-26T02:20:29.512Z,0
2023-04-26T02:21:45.794Z,0
2023-04-26T02:23:02.087Z,0
2023-04-26T02:24:18.383Z,0
2023-04-26T02:25:34.691Z,0
2023-04-26T02:26:50.971Z,0
2023-04-26T02:28:07.268Z,0
2023-04-26T02:29:23.559Z,0
2023-04-26T02:30:39.871Z,0
2023-04-26T02:33:12.446Z,0
2023-04-26T02:34:28.742Z,0
2023-04-26T02:35:44.059Z,0
2023-04-26T02:37:00.341Z,0
2023-04-26T02:38:16.640Z,0
2023-04-26T02:39:32.935Z,0
2023-04-26T02:40:49.244Z,0
2023-04-26T02:42:05.537Z,0
2023-04-26T02:43:21.818Z,0
2023-04-26T02:44:38.122Z,0
2023-04-26T02:45:54.418Z,0
2023-04-26T02:48:26.998Z,0
2023-04-26T02:49:43.294Z,0
2023-04-26T02:50:59.592Z,0
2023-04-26T02:52:14.903Z,0
2023-04-26T02:53:31.207Z,0
2023-04-26T02:54:47.491Z,0
2023-04-26T02:56:03.779Z,0
2023-04-26T02:57:20.078Z,0
2023-04-26T02:58:36.382Z,0
2023-04-26T02:59:52.664Z,0
2023-04-26T03:01:08.956Z,0
2023-04-26T03:03:41.550Z,0
2023-04-26T03:04:57.854Z,0
2023-04-26T03:06:14.143Z,0
2023-04-26T03:07:30.430Z,0
2023-04-26T03:08:45.756Z,0
2023-04-26T03:10:02.001Z,1
2023-04-26T03:11:18.288Z,0
2023-04-26T03:12:34.536Z,1
2023-04-26T03:13:50.778Z,1
2023-04-26T03:15:07.019Z,1
2023-04-26T03:16:23.313Z,0
2023-04-26T03:17:39.614Z,0
2023-04-26T03:18:55.870Z,2
2023-04-26T03:21:28.399Z,0
2023-04-26T03:22:44.653Z,4
2023-04-26T03:24:00.888Z,3
2023-04-26T03:25:16.136Z,4
2023-04-26T03:26:32.386Z,4
2023-04-26T03:27:48.633Z,2
2023-04-26T03:29:04.863Z,4
2023-04-26T03:30:21.103Z,6
2023-04-26T03:31:37.352Z,6
2023-04-26T03:32:53.590Z,7
2023-04-26T03:34:09.836Z,11
2023-04-26T03:35:26.080Z,12
2023-04-26T03:36:42.310Z,16
2023-04-26T03:37:58.562Z,15
2023-04-26T03:39:14.803Z,26
2023-04-26T03:40:31.025Z,26
2023-04-26T03:41:46.285Z,30
2023-04-26T03:43:02.531Z,38
2023-04-26T03:44:18.762Z,48
2023-04-26T03:45:35.004Z,55
2023-04-26T03:46:51.251Z,65
2023-04-26T03:48:07.502Z,76
2023-04-26T03:49:23.732Z,88
2023-04-26T03:50:39.980Z,102
2023-04-26T03:51:56.225Z,119
2023-04-26T03:53:12.460Z,135
2023-04-26T03:54:28.696Z,151
2023-04-26T03:55:44.942Z,169
2023-04-26T03:57:01.183Z,188
2023-04-26T03:58:16.438Z,208
2023-04-26T03:59:32.679Z,234
2023-04-26T04:00:48.918Z,251
2023-04-26T04:02:05.155Z,259
2023-04-26T04:03:21.401Z,281
2023-04-26T04:04:37.644Z,316
2023-04-26T04:05:53.879Z,345
2023-04-26T04:07:10.124Z,380
2023-04-26T04:08:26.371Z,422
2023-04-26T04:09:42.613Z,464
2023-04-26T04:10:58.854Z,493
2023-04-26T04:12:15.079Z,546
2023-04-26T04:13:31.324Z,568
2023-04-26T04:14:46.576Z,619
2023-04-26T04:16:02.826Z,710
2023-04-26T04:17:19.062Z,728
2023-04-26T04:18:35.304Z,873
2023-04-26T04:19:51.548Z,925
2023-04-26T04:21:07.793Z,873
2023-04-26T04:22:24.030Z,806
2023-04-26T04:23:40.275Z,619
2023-04-26T04:24:56.504Z,914
2023-04-26T04:26:12.757Z,2159
2023-04-26T04:27:29.001Z,3792
2023-04-26T04:28:45.224Z,3106
2023-04-26T04:30:01.470Z,2719
2023-04-26T04:31:16.729Z,2129
2023-04-26T04:32:32.977Z,1841
2023-04-26T04:33:49.215Z,1728
2023-04-26T04:35:05.447Z,1657
2023-04-26T04:36:21.698Z,1676
2023-04-26T04:37:37.935Z,1687
2023-04-26T04:38:54.183Z,1636
2023-04-26T04:40:10.414Z,1679
2023-04-26T04:42:42.886Z,1649
2023-04-26T04:43:59.137Z,1631
2023-04-26T04:45:15.388Z,1671
2023-04-26T04:46:31.613Z,1711
2023-04-26T04:47:46.872Z,1754
2023-04-26T04:49:03.122Z,1797
2023-04-26T04:50:19.359Z,1835
2023-04-26T04:51:35.592Z,1871
2023-04-26T04:52:51.843Z,1907
2023-04-26T04:54:08.080Z,1928
2023-04-26T04:55:23.341Z,1963
2023-04-26T04:56:39.577Z,1996
2023-04-26T04:57:55.822Z,2032
2023-04-26T04:59:12.054Z,2060
2023-04-26T05:00:28.302Z,2093
2023-04-26T05:01:44.550Z,2122
2023-04-26T05:03:00.776Z,2147
2023-04-26T05:04:17.023Z,2190
2023-04-26T05:05:33.274Z,2216
2023-04-26T05:06:49.511Z,2241
2023-04-26T05:08:05.756Z,2262
2023-04-26T05:09:21.996Z,2287
2023-04-26T05:10:38.236Z,2305
2023-04-26T05:11:53.498Z,2335
2023-04-26T05:13:09.730Z,2361
2023-04-26T05:14:25.965Z,2389
2023-04-26T05:15:42.213Z,2413
2023-04-26T05:16:58.454Z,2428
2023-04-26T05:18:14.702Z,2444
2023-04-26T05:19:30.929Z,2448
2023-04-26T05:20:47.183Z,2452
2023-04-26T05:22:03.411Z,2455
2023-04-26T05:23:19.644Z,2455
2023-04-26T05:24:35.895Z,2457
2023-04-26T05:25:52.146Z,2462
2023-04-26T05:27:08.376Z,2468
2023-04-26T05:28:23.638Z,2477
2023-04-26T05:29:39.865Z,2485
2023-04-26T05:30:56.112Z,2489
2023-04-26T05:32:12.345Z,2502
2023-04-26T05:33:28.596Z,2512
2023-04-26T05:34:44.847Z,2520
2023-04-26T05:36:01.079Z,2530
2023-04-26T05:37:17.328Z,2547
2023-04-26T05:38:33.548Z,2555
2023-04-26T05:39:49.804Z,2566
2023-04-26T05:41:06.031Z,2571
2023-04-26T05:42:22.290Z,2578
2023-04-26T05:43:38.515Z,2578
2023-04-26T05:44:53.788Z,2586
2023-04-26T05:46:10.009Z,2593
2023-04-26T05:47:26.257Z,2602
2023-04-26T05:48:42.503Z,2609
2023-04-26T05:49:58.745Z,2616
2023-04-26T05:51:14.979Z,2628
2023-04-26T05:52:31.213Z,2636
2023-04-26T05:53:47.473Z,2641
2023-04-26T05:55:03.703Z,2645
2023-04-26T05:56:19.945Z,2656
2023-04-26T05:58:52.422Z,2663
2023-04-26T06:00:08.667Z,2672
2023-04-26T06:01:23.928Z,2675
2023-04-26T06:03:56.396Z,2693
2023-04-26T06:05:12.652Z,2697
2023-04-26T06:06:28.883Z,2703
2023-04-26T06:07:45.116Z,2702
2023-04-26T06:09:01.372Z,2701
2023-04-26T06:10:17.599Z,2705
2023-04-26T06:11:33.840Z,2707
2023-04-26T06:12:50.087Z,2710
2023-04-26T06:14:06.320Z,2711
2023-04-26T06:15:22.573Z,2717
2023-04-26T06:16:38.802Z,2722
2023-04-26T06:17:55.172Z,2736
2023-04-26T06:19:11.421Z,2740
2023-04-26T06:20:27.662Z,2743
2023-04-26T06:21:43.898Z,2752
2023-04-26T06:23:00.128Z,2765
2023-04-26T06:24:16.374Z,2775
2023-04-26T06:25:32.623Z,2785
2023-04-26T06:26:48.862Z,2789
2023-04-26T06:28:05.097Z,2785
2023-04-26T06:29:21.342Z,2781
2023-04-26T06:30:37.582Z,2783
2023-04-26T06:31:53.815Z,2787
2023-04-26T06:33:10.064Z,2792
2023-04-26T06:35:41.551Z,2829
2023-04-26T06:36:57.808Z,2836
2023-04-26T06:38:14.035Z,2859
2023-04-26T06:39:30.271Z,2866
2023-04-26T06:40:46.524Z,2796
2023-04-26T06:42:02.000Z,2792
2023-04-26T06:43:18.994Z,2791
2023-04-26T06:44:35.243Z,2794
2023-04-26T06:45:51.478Z,2878
2023-04-26T06:47:07.721Z,2907
2023-04-26T06:48:23.966Z,2728
2023-04-26T06:49:40.200Z,2737
2023-04-26T06:52:11.693Z,2798
2023-04-26T06:53:27.935Z,2834
2023-04-26T06:54:44.181Z,2819
2023-04-26T06:56:00.428Z,2707
2023-04-26T06:57:16.674Z,2754
2023-04-26T06:58:32.912Z,2962
2023-04-26T06:59:49.152Z,2968
2023-04-26T07:01:05.383Z,2864
2023-04-26T07:02:21.618Z,3084
2023-04-26T07:03:37.871Z,2987
2023-04-26T07:04:54.108Z,3061
2023-04-26T07:07:26.598Z,3463
2023-04-26T07:08:41.850Z,3304
2023-04-26T07:09:58.080Z,3313
2023-04-26T07:11:14.337Z,3777
2023-04-26T07:12:30.562Z,3071
2023-04-26T07:13:46.818Z,4058
2023-04-26T07:15:03.044Z,4965
2023-04-26T07:16:19.290Z,4843
2023-04-26T07:17:35.535Z,5241
2023-04-26T07:18:51.779Z,3793
2023-04-26T07:20:08.007Z,4107
2023-04-26T07:22:40.503Z,3082
2023-04-26T07:23:56.732Z,3725
2023-04-26T07:25:12.001Z,3103
2023-04-26T07:26:28.226Z,3734
2023-04-26T07:27:44.481Z,3966
2023-04-26T07:29:00.721Z,3936
2023-04-26T07:30:16.956Z,4758
2023-04-26T07:31:33.198Z,5717
2023-04-26T07:32:49.444Z,6122
2023-04-26T07:34:05.676Z,5252
2023-04-26T07:35:21.915Z,4476
2023-04-26T07:36:38.150Z,3743
2023-04-26T07:37:54.388Z,3583
2023-04-26T07:39:10.634Z,3547
2023-04-26T07:40:26.877Z,3719
2023-04-26T07:41:42.145Z,4017
2023-04-26T07:42:58.386Z,4326
2023-04-26T07:44:14.627Z,3746
2023-04-26T07:45:30.864Z,3911
2023-04-26T07:46:47.100Z,3289
2023-04-26T07:48:03.328Z,3078
2023-04-26T07:49:19.582Z,3687
2023-04-26T07:50:35.826Z,3941
2023-04-26T07:51:52.062Z,4865
2023-04-26T07:53:08.293Z,5822
2023-04-26T07:54:24.544Z,6518
2023-04-26T07:55:40.788Z,7741
2023-04-26T07:56:57.023Z,5868
2023-04-26T07:58:12.278Z,4370
2023-04-26T07:59:28.520Z,4718
2023-04-26T08:00:44.760Z,5978
2023-04-26T08:02:00.994Z,5480
2023-04-26T08:03:17.241Z,6472
2023-04-26T08:04:33.485Z,5504
2023-04-26T08:05:49.722Z,5663
2023-04-26T08:07:05.957Z,5410
2023-04-26T08:08:22.198Z,5196
2023-04-26T08:09:38.447Z,4858
2023-04-26T08:10:54.678Z,4662
2023-04-26T08:12:10.922Z,6045
2023-04-26T08:13:27.148Z,7067
2023-04-26T08:15:59.638Z,6058
2023-04-26T08:17:14.887Z,5865
2023-04-26T08:18:31.132Z,5604
2023-04-26T08:19:47.377Z,4931
2023-04-26T08:21:03.613Z,4700
2023-04-26T08:22:19.846Z,4174
2023-04-26T08:23:36.103Z,3955
2023-04-26T08:24:52.326Z,4071
2023-04-26T08:26:08.576Z,3933
2023-04-26T08:27:24.809Z,4002
2023-04-26T08:28:41.045Z,3675
2023-04-26T08:29:57.288Z,3683
2023-04-26T08:31:13.534Z,3871
2023-04-26T08:32:29.774Z,4548
2023-04-26T08:33:45.031Z,5412
2023-04-26T08:35:01.280Z,6045
2023-04-26T08:36:17.509Z,6136
2023-04-26T08:37:33.739Z,6112
2023-04-26T08:38:49.984Z,5865
2023-04-26T08:40:06.234Z,5619
2023-04-26T08:41:22.479Z,6631
2023-04-26T08:43:54.959Z,5784
2023-04-26T08:46:27.424Z,6548
2023-04-26T08:47:43.662Z,6789
2023-04-26T08:48:59.917Z,5824
2023-04-26T08:50:15.164Z,5005
2023-04-26T08:51:31.405Z,6257
2023-04-26T08:52:47.648Z,6618
2023-04-26T08:54:03.896Z,5712
2023-04-26T08:55:20.128Z,5239
2023-04-26T08:56:36.375Z,4654
2023-04-26T08:57:52.607Z,3939
2023-04-26T08:59:08.842Z,3567
2023-04-26T09:00:25.094Z,3987
2023-04-26T09:01:41.337Z,4394
2023-04-26T09:02:57.562Z,4179
2023-04-26T09:04:13.801Z,4001
2023-04-26T09:05:30.053Z,4716
2023-04-26T09:06:46.295Z,5542
2023-04-26T09:09:17.781Z,6381
2023-04-26T09:10:33.059Z,7172
2023-04-26T09:11:48.312Z,5424
2023-04-26T09:13:04.552Z,5277
2023-04-26T09:14:20.786Z,4293
2023-04-26T09:15:37.040Z,3707
2023-04-26T09:16:53.270Z,3381
2023-04-26T09:18:09.512Z,3186
2023-04-26T09:19:25.749Z,2951
2023-04-26T09:20:41.991Z,2733
2023-04-26T09:21:58.222Z,2545
2023-04-26T09:24:30.712Z,2414
2023-04-26T09:25:46.945Z,2238
2023-04-26T09:27:03.202Z,2080
2023-04-26T09:28:18.458Z,2125
2023-04-26T09:29:34.679Z,2475
2023-04-26T09:30:50.926Z,2763
2023-04-26T09:32:07.174Z,3132
2023-04-26T09:33:23.407Z,3329
2023-04-26T09:34:39.654Z,3170
2023-04-26T09:35:55.893Z,3082
2023-04-26T09:37:12.132Z,3431
2023-04-26T09:38:27.397Z,3949
2023-04-26T09:39:43.639Z,5108
2023-04-26T09:40:58.887Z,6097
2023-04-26T09:42:15.130Z,6710
2023-04-26T09:43:31.356Z,6854
2023-04-26T09:44:47.596Z,7255
2023-04-26T09:47:20.082Z,6217
2023-04-26T09:48:36.321Z,5402
2023-04-26T09:51:08.797Z,5831
2023-04-26T09:52:25.048Z,5788
2023-04-26T09:53:41.281Z,6062
2023-04-26T09:54:57.516Z,7240
2023-04-26T09:56:12.780Z,7431
2023-04-26T09:57:28.029Z,7424
2023-04-26T09:58:44.272Z,7265
2023-04-26T10:00:00.518Z,7048
2023-04-26T10:01:16.759Z,7756
2023-04-26T10:02:32.990Z,7486
2023-04-26T10:03:49.247Z,6814
2023-04-26T10:05:05.483Z,7491
2023-04-26T10:06:21.722Z,6797
2023-04-26T10:07:37.962Z,6070
2023-04-26T10:08:54.197Z,5970
2023-04-26T10:10:10.433Z,6505
2023-04-26T10:11:25.695Z,7464
2023-04-26T10:12:40.945Z,6863
2023-04-26T10:13:57.205Z,5936
2023-04-26T10:15:13.443Z,5770
2023-04-26T10:16:29.676Z,5865
2023-04-26T10:17:45.918Z,6078
2023-04-26T10:19:02.144Z,7392
2023-04-26T10:20:18.403Z,8197
2023-04-26T10:21:34.633Z,7168
2023-04-26T10:22:50.876Z,6664
2023-04-26T10:25:23.360Z,6467
2023-04-26T10:26:39.601Z,6410
2023-04-26T10:27:55.827Z,6396
2023-04-26T10:29:11.096Z,6269
2023-04-26T10:30:27.343Z,5752
2023-04-26T10:32:59.805Z,5280
2023-04-26T10:34:16.046Z,6722
2023-04-26T10:35:31.303Z,7834
2023-04-26T10:36:46.577Z,7517
2023-04-26T10:38:02.809Z,7643
2023-04-26T10:39:19.048Z,7886
2023-04-26T10:40:35.297Z,7622
2023-04-26T10:41:51.537Z,7132
2023-04-26T10:43:07.759Z,6237
2023-04-26T10:44:24.000Z,5983
2023-04-26T10:45:40.254Z,5677
2023-04-26T10:46:56.492Z,5525
2023-04-26T10:48:12.725Z,5694
2023-04-26T10:49:27.981Z,5844
2023-04-26T10:50:43.253Z,5708
2023-04-26T10:51:59.481Z,5879
2023-04-26T10:53:15.729Z,6190
2023-04-26T10:54:31.965Z,6720
2023-04-26T10:55:48.196Z,6914
2023-04-26T10:57:04.437Z,7213
2023-04-26T10:58:20.689Z,7555
2023-04-26T11:00:53.172Z,7120
2023-04-26T11:02:09.400Z,5752
2023-04-26T11:03:25.639Z,5036
2023-04-26T11:04:41.889Z,4910
2023-04-26T11:05:58.117Z,5211
2023-04-26T11:07:13.381Z,5044
2023-04-26T11:08:29.628Z,5523
2023-04-26T11:09:45.857Z,6119
2023-04-26T11:11:02.107Z,6390
2023-04-26T11:12:18.335Z,6531
2023-04-26T11:13:34.575Z,6689
2023-04-26T11:14:50.827Z,7935
2023-04-26T11:16:07.055Z,8132
2023-04-26T11:17:23.295Z,8310
2023-04-26T11:18:39.538Z,8421
2023-04-26T11:19:55.792Z,8167
2023-04-26T11:21:12.015Z,8012
2023-04-26T11:22:28.271Z,7598
2023-04-26T11:23:44.503Z,7315
2023-04-26T11:26:15.995Z,6511
2023-04-26T11:27:32.237Z,5930
2023-04-26T11:28:48.484Z,5543
2023-04-26T11:30:04.713Z,5514
2023-04-26T11:31:20.966Z,5580
2023-04-26T11:33:53.445Z,5559
2023-04-26T11:35:09.683Z,5737
2023-04-26T11:36:25.908Z,6307
2023-04-26T11:37:42.147Z,7215
2023-04-26T11:38:58.394Z,7801
2023-04-26T11:41:30.868Z,7805
2023-04-26T11:42:47.110Z,7358
2023-04-26T11:44:02.389Z,6804
2023-04-26T11:45:18.608Z,6441
2023-04-26T11:46:33.869Z,6222
2023-04-26T11:47:50.117Z,5819
2023-04-26T11:49:06.348Z,5638
2023-04-26T11:50:22.603Z,5121
2023-04-26T11:51:38.834Z,5149
2023-04-26T11:52:55.067Z,5196
2023-04-26T11:54:11.319Z,5519
2023-04-26T11:55:27.559Z,5614
2023-04-26T11:56:43.800Z,5319
2023-04-26T11:57:59.049Z,5924
2023-04-26T11:59:14.305Z,6652
2023-04-26T12:00:30.558Z,7199
2023-04-26T12:01:46.801Z,7620
2023-04-26T12:03:03.023Z,7681
2023-04-26T12:04:19.265Z,7403
2023-04-26T12:05:35.517Z,7342
2023-04-26T12:06:51.757Z,7176
2023-04-26T12:08:08.001Z,6986
2023-04-26T12:09:24.238Z,7021
2023-04-26T12:10:40.470Z,6895
2023-04-26T12:11:56.719Z,7032
2023-04-26T12:13:12.942Z,7273
2023-04-26T12:14:29.182Z,7431
2023-04-26T12:15:44.437Z,7506
2023-04-26T12:17:00.696Z,7566
2023-04-26T12:18:16.920Z,7837
2023-04-26T12:19:33.164Z,8032
2023-04-26T12:20:49.416Z,8354
2023-04-26T12:22:05.642Z,8644
2023-04-26T12:23:21.893Z,8805
2023-04-26T12:24:38.122Z,8570
2023-04-26T12:27:10.599Z,8812
2023-04-26T12:28:26.852Z,8785
2023-04-26T12:29:43.094Z,8494
2023-04-26T12:30:59.316Z,8568
2023-04-26T12:34:47.063Z,8333
2023-04-26T12:36:03.312Z,8294
2023-04-26T12:37:18.569Z,8531
2023-04-26T12:38:33.813Z,8347
2023-04-26T12:39:50.053Z,7987
2023-04-26T12:41:06.288Z,8336
2023-04-26T12:42:22.531Z,7616
2023-04-26T12:44:55.017Z,6710
2023-04-26T12:46:11.262Z,6463
2023-04-26T12:47:27.496Z,5704
2023-04-26T12:48:43.739Z,5237
2023-04-26T12:49:59.975Z,5264
2023-04-26T12:51:16.216Z,5794
2023-04-26T12:52:32.468Z,6764
2023-04-26T12:53:48.696Z,7532
2023-04-26T12:55:03.960Z,7859
2023-04-26T12:56:20.202Z,7539
2023-04-26T12:57:36.435Z,7157
2023-04-26T12:58:52.669Z,6812
2023-04-26T13:00:08.913Z,6188
2023-04-26T13:01:25.157Z,5749
2023-04-26T13:02:41.388Z,5466
2023-04-26T13:03:57.639Z,5603
2023-04-26T13:05:12.901Z,5846
2023-04-26T13:06:28.148Z,6222
2023-04-26T13:07:44.400Z,6732
2023-04-26T13:09:00.638Z,6861
2023-04-26T13:10:16.863Z,7506
2023-04-26T13:11:33.114Z,7522
2023-04-26T13:12:49.353Z,7288
2023-04-26T13:14:05.588Z,7479
2023-04-26T13:15:21.833Z,6857
2023-04-26T13:16:38.076Z,6863
2023-04-26T13:17:54.310Z,7065
2023-04-26T13:19:10.544Z,6663
2023-04-26T13:20:26.797Z,6155
2023-04-26T13:21:43.029Z,5487
2023-04-26T13:22:58.000Z,4418
2023-04-26T13:24:14.533Z,3776
2023-04-26T13:25:29.786Z,3338
2023-04-26T13:26:46.036Z,3056
2023-04-26T13:28:02.280Z,2878
2023-04-26T13:29:18.518Z,2757
2023-04-26T13:30:34.743Z,2578
2023-04-26T13:31:50.999Z,2374
2023-04-26T13:33:07.230Z,2219
2023-04-26T13:34:23.463Z,2141
2023-04-26T13:35:39.719Z,2118
2023-04-26T13:36:55.949Z,2080
2023-04-26T13:38:12.190Z,2138
2023-04-26T13:39:28.424Z,2279
2023-04-26T13:40:44.662Z,2513
2023-04-26T13:41:59.922Z,2781
2023-04-26T13:43:16.158Z,3104
2023-04-26T13:44:32.409Z,3322
2023-04-26T13:45:48.651Z,3909
2023-04-26T13:47:04.877Z,4497
2023-04-26T13:48:21.115Z,4757
2023-04-26T13:49:37.369Z,5264
2023-04-26T13:50:53.612Z,5643
2023-04-26T13:52:09.851Z,5848
2023-04-26T13:53:26.081Z,5953
2023-04-26T13:54:42.325Z,5538
2023-04-26T13:55:58.561Z,4736
2023-04-26T13:57:14.805Z,4063
2023-04-26T13:58:30.052Z,3432
2023-04-26T13:59:46.295Z,2949
2023-04-26T14:01:02.551Z,2646
2023-04-26T14:02:18.774Z,2432
2023-04-26T14:03:35.030Z,2303
2023-04-26T14:06:07.504Z,2506
2023-04-26T14:07:23.751Z,2749
2023-04-26T14:08:39.972Z,2928
2023-04-26T14:09:56.220Z,3000
2023-04-26T14:11:12.468Z,3047
2023-04-26T14:12:28.708Z,3036
2023-04-26T14:13:44.936Z,2986
2023-04-26T14:15:00.203Z,2835
2023-04-26T14:16:16.428Z,2628
2023-04-26T14:18:48.913Z,2272
2023-04-26T14:20:05.165Z,2126
2023-04-26T14:21:21.399Z,1925
2023-04-26T14:22:37.645Z,1763
2023-04-26T14:23:53.885Z,1691
2023-04-26T14:25:10.124Z,1673
2023-04-26T14:26:26.351Z,1741
2023-04-26T14:27:42.606Z,1902
2023-04-26T14:28:58.845Z,2087
2023-04-26T14:30:15.081Z,2375
2023-04-26T14:31:30.345Z,2683
2023-04-26T14:32:46.577Z,3041
2023-04-26T14:34:02.812Z,3466
2023-04-26T14:35:19.052Z,4191
2023-04-26T14:36:35.288Z,5153
2023-04-26T14:37:51.537Z,5979
2023-04-26T14:39:07.772Z,6298
2023-04-26T14:40:24.019Z,6411
2023-04-26T14:41:40.257Z,6530
2023-04-26T14:44:12.746Z,6114
2023-04-26T14:45:28.976Z,5950
2023-04-26T14:46:45.209Z,6019
2023-04-26T14:48:00.482Z,6536
2023-04-26T14:49:16.722Z,6404
2023-04-26T14:51:49.202Z,6731
2023-04-26T14:53:05.431Z,6370
2023-04-26T14:54:21.677Z,6092
2023-04-26T14:55:37.903Z,5823
2023-04-26T14:56:54.162Z,5511
2023-04-26T14:58:10.394Z,5323
2023-04-26T14:59:26.637Z,5289
2023-04-26T15:00:42.869Z,5003
2023-04-26T15:01:59.111Z,4683
2023-04-26T15:03:15.347Z,4473
2023-04-26T15:04:30.598Z,4328
2023-04-26T15:05:46.839Z,4195
2023-04-26T15:07:03.088Z,4119
2023-04-26T15:08:19.323Z,4122
2023-04-26T15:09:35.563Z,4116
2023-04-26T15:10:51.800Z,3874
2023-04-26T15:12:08.054Z,3812
2023-04-26T15:13:24.298Z,4030
2023-04-26T15:14:40.522Z,4111
2023-04-26T15:15:56.770Z,4028
2023-04-26T15:17:13.008Z,4376
2023-04-26T15:18:29.243Z,4760
2023-04-26T15:19:45.483Z,5258
2023-04-26T15:21:00.746Z,5697
2023-04-26T15:22:16.995Z,5701
2023-04-26T15:23:33.219Z,5371
2023-04-26T15:24:49.474Z,5100
2023-04-26T15:26:05.699Z,4986
2023-04-26T15:27:21.945Z,5079
2023-04-26T15:28:38.188Z,5097
2023-04-26T15:29:54.415Z,5130
2023-04-26T15:31:10.662Z,5121
2023-04-26T15:32:26.896Z,4860
2023-04-26T15:33:43.134Z,4508
2023-04-26T15:34:59.393Z,3949
2023-04-26T15:37:31.866Z,3225
2023-04-26T15:38:47.118Z,3289
2023-04-26T15:40:03.361Z,3236
2023-04-26T15:41:19.602Z,3023
2023-04-26T15:42:35.845Z,2957
2023-04-26T15:45:08.318Z,2731
2023-04-26T15:46:24.569Z,2753
2023-04-26T15:47:40.791Z,2800
2023-04-26T15:48:57.045Z,2828
2023-04-26T15:50:13.275Z,3139
2023-04-26T15:52:45.762Z,3712
2023-04-26T15:54:01.014Z,3880
2023-04-26T15:55:16.288Z,3864
2023-04-26T15:56:32.508Z,3770
2023-04-26T15:57:48.751Z,3670
2023-04-26T15:59:04.989Z,3577
2023-04-26T16:00:21.240Z,3566
2023-04-26T16:01:37.484Z,3584
2023-04-26T16:02:53.711Z,3638
2023-04-26T16:04:09.966Z,3808
2023-04-26T16:05:26.205Z,3920
2023-04-26T16:06:42.428Z,4048
2023-04-26T16:07:57.689Z,4113
2023-04-26T16:09:12.948Z,4142
2023-04-26T16:10:29.195Z,4095
2023-04-26T16:11:45.426Z,3861
2023-04-26T16:13:01.674Z,3607
2023-04-26T16:14:17.926Z,3627
2023-04-26T16:15:34.161Z,3471
2023-04-26T16:16:50.396Z,3445
2023-04-26T16:18:06.642Z,3268
2023-04-26T16:19:22.886Z,3049
2023-04-26T16:20:39.111Z,2937
2023-04-26T16:21:55.366Z,2767
2023-04-26T16:23:11.603Z,2571
2023-04-26T16:24:27.839Z,2399
2023-04-26T16:25:43.102Z,2246
2023-04-26T16:26:59.342Z,2102
2023-04-26T16:28:15.573Z,2014
2023-04-26T16:29:31.803Z,1931
2023-04-26T16:30:48.042Z,1902
2023-04-26T16:32:04.283Z,1861
2023-04-26T16:33:20.532Z,1814
2023-04-26T16:34:36.781Z,1759
2023-04-26T16:35:53.014Z,1657
2023-04-26T16:37:09.255Z,1594
2023-04-26T16:38:25.490Z,1683
2023-04-26T16:39:41.738Z,1420
2023-04-26T16:40:57.971Z,1532
2023-04-26T16:42:13.237Z,1480
2023-04-26T16:43:29.460Z,1394
2023-04-26T16:44:45.714Z,1320
2023-04-26T16:46:01.948Z,1226
2023-04-26T16:47:18.187Z,1124
2023-04-26T16:48:34.436Z,1027
2023-04-26T16:49:50.661Z,946
2023-04-26T16:51:06.919Z,943
2023-04-26T16:52:23.141Z,943
2023-04-26T16:53:39.395Z,920
2023-04-26T16:54:55.623Z,885
2023-04-26T16:56:11.869Z,871
2023-04-26T16:57:28.106Z,871
2023-04-26T16:58:43.365Z,869
2023-04-26T16:59:59.602Z,921
2023-04-26T17:01:15.847Z,983
2023-04-26T17:02:32.089Z,1031
2023-04-26T17:03:48.326Z,1132
2023-04-26T17:05:04.566Z,1218
2023-04-26T17:06:20.805Z,1258
2023-04-26T17:07:37.036Z,1298
2023-04-26T17:08:53.296Z,1327
2023-04-26T17:10:09.534Z,1295
2023-04-26T17:11:25.772Z,1249
2023-04-26T17:12:42.005Z,1176
2023-04-26T17:13:58.245Z,1133
2023-04-26T17:15:13.506Z,1085
2023-04-26T17:16:29.738Z,1034
2023-04-26T17:17:45.994Z,1022
2023-04-26T17:19:02.214Z,1035
2023-04-26T17:20:18.459Z,1051
2023-04-26T17:21:34.701Z,1002
2023-04-26T17:22:50.947Z,962
2023-04-26T17:24:07.188Z,930
2023-04-26T17:25:23.431Z,905
2023-04-26T17:26:39.653Z,910
2023-04-26T17:27:55.898Z,905
2023-04-26T17:29:12.150Z,892
2023-04-26T17:30:28.388Z,919
2023-04-26T17:31:43.634Z,953
2023-04-26T17:32:59.876Z,957
2023-04-26T17:34:16.113Z,947
2023-04-26T17:35:32.361Z,932
2023-04-26T17:36:48.592Z,672
2023-04-26T17:38:04.845Z,442
2023-04-26T17:39:21.077Z,579
2023-04-26T17:40:36.351Z,1223
2023-04-26T17:41:52.589Z,1168
2023-04-26T17:43:08.816Z,1172
2023-04-26T17:44:25.000Z,1173
2023-04-26T17:45:41.296Z,1218
2023-04-26T17:46:57.532Z,1247
2023-04-26T17:48:13.784Z,1131
2023-04-26T17:49:30.024Z,967
2023-04-26T17:50:46.271Z,966
2023-04-26T17:52:02.508Z,955
2023-04-26T17:53:18.746Z,1299
2023-04-26T17:54:34.977Z,1239
2023-04-26T17:55:51.215Z,730
2023-04-26T17:57:06.488Z,691
2023-04-26T17:58:22.710Z,676
2023-04-26T17:59:38.951Z,590
2023-04-26T18:00:55.195Z,496
2023-04-26T18:02:11.435Z,555
2023-04-26T18:06:00.153Z,540
2023-04-26T18:07:16.407Z,469
2023-04-26T18:08:32.641Z,480
2023-04-26T18:09:48.871Z,490
2023-04-26T18:11:05.122Z,451
2023-04-26T18:12:21.364Z,436